Time;durP1;ratioP1;P1;durP2;ratioP2;P2;SDS_P1;SDS_P2;PMS_P1;PMS_P2;Temp;Humidity;BMP_temperature;BMP_pressure;BME280_temperature;BME280_humidity;BME280_pressure;Samples;Min_cycle;Max_cycle;Signal;HPM_P1;HPM_P2
2023/12/22 00:00:26;;;;;;;2.10;0.60;;;;;;;7.94;92.04;100492.56;5098700;27;96645;-30
2023/12/22 00:02:51;;;;;;;1.33;0.45;;;;;;;7.90;91.59;100477.50;5099638;27;96786;-28
2023/12/22 00:05:17;;;;;;;1.75;0.20;;;;;;;7.94;91.87;100503.34;5099324;27;97343;-29
2023/12/22 00:07:42;;;;;;;1.02;0.55;;;;;;;7.88;90.89;100504.53;5099016;27;97934;-28
2023/12/22 00:10:09;;;;;;;0.35;0.28;;;;;;;7.93;88.87;100520.47;5099767;27;96648;-28
2023/12/22 00:12:34;;;;;;;3.97;0.82;;;;;;;7.90;89.14;100504.47;5099753;27;96725;-29
2023/12/22 00:14:59;;;;;;;0.20;0.10;;;;;;;7.83;87.96;100502.09;5099076;27;97805;-28
2023/12/22 00:17:25;;;;;;;0.68;0.30;;;;;;;7.96;89.41;100521.19;5098433;27;99807;-30
2023/12/22 00:19:50;;;;;;;0.10;0.03;;;;;;;7.84;88.68;100494.88;5098638;27;96671;-29
2023/12/22 00:22:15;;;;;;;0.90;0.60;;;;;;;7.88;89.26;100499.16;5099196;27;96797;-29
2023/12/22 00:24:41;;;;;;;2.17;0.52;;;;;;;7.91;88.53;100506.19;5098979;27;97933;-29
2023/12/22 00:27:06;;;;;;;7.30;0.93;;;;;;;7.94;88.99;100485.34;5098704;27;101019;-28
2023/12/22 00:29:35;;;;;;;3.03;0.63;;;;;;;7.92;87.83;100487.25;5098977;27;96555;-28
2023/12/22 00:32:01;;;;;;;5.95;0.38;;;;;;;7.93;87.90;100488.97;5098897;27;96812;-28
2023/12/22 00:34:26;;;;;;;4.90;0.60;;;;;;;7.95;88.02;100481.66;5098354;27;97411;-28
2023/12/22 00:36:51;;;;;;;7.43;0.85;;;;;;;8.00;87.55;100484.97;5099045;27;97795;-28
2023/12/22 00:39:17;;;;;;;1.13;0.40;;;;;;;7.96;85.95;100491.50;5098870;27;96567;-28
2023/12/22 00:41:42;;;;;;;1.00;0.60;;;;;;;7.95;83.68;100496.97;5099131;27;96789;-29
2023/12/22 00:44:07;;;;;;;1.55;0.32;;;;;;;8.00;82.87;100489.50;5097951;27;98944;-29
2023/12/22 00:46:33;;;;;;;0.82;0.50;;;;;;;7.98;82.58;100508.44;5098417;27;99145;-28
2023/12/22 00:48:58;;;;;;;0.63;0.30;;;;;;;7.98;83.34;100497.66;5098697;27;96672;-28
2023/12/22 00:51:23;;;;;;;4.57;1.10;;;;;;;7.93;83.60;100497.06;5098366;27;96757;-28
2023/12/22 00:53:48;;;;;;;0.52;0.20;;;;;;;7.96;84.14;100506.81;5098462;27;97414;-29
2023/12/22 00:56:14;;;;;;;4.03;0.52;;;;;;;8.00;84.92;100506.53;5079700;27;100880;-29
2023/12/22 00:58:40;;;;;;;1.17;0.20;;;;;;;8.01;85.12;100523.63;5098628;27;96533;-29
2023/12/22 01:01:05;;;;;;;0.82;0.20;;;;;;;7.95;83.23;100527.50;5080657;27;96775;-28
2023/12/22 01:03:30;;;;;;;5.20;1.20;;;;;;;7.93;82.27;100520.47;5098219;27;97365;-28
2023/12/22 01:05:56;;;;;;;3.83;0.88;;;;;;;7.96;82.21;100526.56;5098357;27;97766;-28
2023/12/22 01:08:21;;;;;;;1.05;0.30;;;;;;;7.95;80.93;100532.91;5098526;27;96512;-28
2023/12/22 01:10:46;;;;;;;5.13;0.77;;;;;;;7.91;81.59;100541.25;5098883;27;96866;-28
2023/12/22 01:13:12;;;;;;;1.35;0.68;;;;;;;7.93;80.19;100540.22;5099869;27;97335;-29
2023/12/22 01:15:37;;;;;;;1.73;0.57;;;;;;;7.94;80.77;100528.47;5101826;27;97294;-28
2023/12/22 01:18:02;;;;;;;7.82;1.08;;;;;;;7.89;82.07;100544.06;5101616;27;96632;-28
2023/12/22 01:20:28;;;;;;;2.20;0.60;;;;;;;7.87;79.92;100524.38;5102331;27;96770;-29
2023/12/22 01:22:53;;;;;;;1.27;0.32;;;;;;;7.87;79.42;100545.97;5101801;27;97363;-28
2023/12/22 01:25:18;;;;;;;0.75;0.40;;;;;;;7.91;80.24;100555.59;5101592;27;107176;-28
2023/12/22 01:27:44;;;;;;;2.35;0.47;;;;;;;7.86;79.76;100528.03;5102089;27;96573;-28
2023/12/22 01:30:09;;;;;;;4.18;0.50;;;;;;;7.91;81.38;100541.25;5101811;27;96797;-29
2023/12/22 01:32:36;;;;;;;2.00;0.60;;;;;;;7.88;82.41;100531.50;5100776;27;99351;-28
2023/12/22 01:35:09;;;;;;;7.97;0.75;;;;;;;7.92;83.00;100551.97;5082491;27;101351;-29
2023/12/22 01:37:34;;;;;;;0.00;0.00;;;;;;;7.84;80.52;100557.78;5083500;27;96588;-29
2023/12/22 01:39:59;;;;;;;2.13;0.47;;;;;;;7.84;79.76;100551.50;5101759;27;96819;-28
2023/12/22 01:42:25;;;;;;;2.85;0.80;;;;;;;7.87;80.49;100571.09;5101404;27;102145;-29
2023/12/22 01:44:51;;;;;;;2.55;0.68;;;;;;;7.82;79.81;100566.91;5101105;27;99644;-29
2023/12/22 01:47:16;;;;;;;3.90;0.30;;;;;;;7.85;78.69;100572.13;5082852;27;96570;-28
2023/12/22 01:49:42;;;;;;;1.17;0.15;;;;;;;7.83;79.79;100558.72;5083355;27;96800;-29
2023/12/22 01:52:07;;;;;;;1.42;0.88;;;;;;;7.83;79.92;100553.31;5100380;27;97874;-29
2023/12/22 01:54:34;;;;;;;0.68;0.35;;;;;;;7.84;80.57;100554.19;5101290;27;97826;-28
2023/12/22 01:57:00;;;;;;;1.48;0.47;;;;;;;7.83;80.95;100560.56;5082299;27;96631;-28
2023/12/22 01:59:25;;;;;;;2.45;0.38;;;;;;;7.78;81.10;100555.41;5101561;27;96759;-28
2023/12/22 02:01:53;;;;;;;0.00;0.00;;;;;;;7.85;81.55;100559.50;5100881;27;97911;-29
2023/12/22 02:04:19;;;;;;;2.08;0.50;;;;;;;7.84;82.40;100554.19;5101061;27;97305;-29
2023/12/22 02:06:44;;;;;;;2.20;0.65;;;;;;;7.89;82.79;100568.31;5101502;27;96576;-30
2023/12/22 02:09:10;;;;;;;4.70;0.63;;;;;;;7.91;83.11;100568.22;5101458;27;97272;-30
2023/12/22 02:11:37;;;;;;;0.85;0.30;;;;;;;7.90;84.13;100571.88;5100672;27;99130;-28
2023/12/22 02:14:03;;;;;;;4.40;0.32;;;;;;;7.86;85.38;100560.38;5082526;27;100777;-28
2023/12/22 02:17:00;;;;;;;3.13;0.52;;;;;;;7.94;85.43;100589.66;5101117;27;96583;-28
2023/12/22 02:19:38;;;;;;;1.20;0.35;;;;;;;7.94;84.71;100574.31;5100309;27;96876;-29
2023/12/22 02:22:07;;;;;;;4.38;0.20;;;;;;;7.96;85.32;100580.50;5100392;27;97595;-28
2023/12/22 02:24:33;;;;;;;0.20;0.20;;;;;;;7.92;85.28;100570.84;5100180;27;97894;-28
2023/12/22 02:27:33;;;;;;;0.30;0.30;;;;;;;7.97;85.16;100571.44;5082414;27;96543;-28
2023/12/22 02:30:32;;;;;;;3.83;0.68;;;;;;;8.00;84.31;100581.19;5074097;27;96855;-28
2023/12/22 02:33:03;;;;;;;5.07;0.50;;;;;;;7.97;84.23;100557.09;5058444;27;97397;-29
2023/12/22 02:35:32;;;;;;;0.07;0.07;;;;;;;7.99;84.04;100566.84;5081919;27;99022;-29
2023/12/22 02:37:59;;;;;;;0.47;0.20;;;;;;;7.95;84.19;100564.41;5082206;27;96648;-28
2023/12/22 02:40:25;;;;;;;0.40;0.20;;;;;;;7.98;84.55;100553.44;5082770;27;96854;-28
2023/12/22 02:42:52;;;;;;;0.40;0.22;;;;;;;8.06;84.79;100568.25;5100500;27;97607;-29
2023/12/22 02:45:19;;;;;;;0.50;0.30;;;;;;;8.05;85.46;100566.50;5100391;27;96886;-28
2023/12/22 02:47:45;;;;;;;1.90;0.65;;;;;;;8.07;85.58;100553.78;5081678;27;96611;-30
2023/12/22 02:50:13;;;;;;;0.30;0.10;;;;;;;8.07;85.78;100551.09;5081697;27;96853;-29
2023/12/22 02:52:38;;;;;;;1.42;0.38;;;;;;;8.08;85.56;100555.56;5081266;27;100795;-28
2023/12/22 02:55:04;;;;;;;0.90;0.17;;;;;;;8.05;85.08;100552.13;5100287;27;97649;-28
2023/12/22 02:57:29;;;;;;;4.75;0.38;;;;;;;8.02;85.15;100545.09;5081849;27;96755;-28
2023/12/22 02:59:55;;;;;;;3.00;0.50;;;;;;;8.05;84.03;100555.69;5100534;27;96778;-29
2023/12/22 03:02:20;;;;;;;1.52;0.75;;;;;;;8.03;84.33;100549.53;5099982;27;97299;-28
2023/12/22 03:04:48;;;;;;;0.45;0.30;;;;;;;8.07;83.39;100566.41;5100051;27;99301;-28
2023/12/22 03:07:14;;;;;;;0.60;0.47;;;;;;;8.06;83.90;100565.56;5100394;27;96441;-30
2023/12/22 03:09:41;;;;;;;0.55;0.30;;;;;;;8.04;83.54;100562.06;5100561;27;96716;-28
2023/12/22 03:12:07;;;;;;;1.63;0.38;;;;;;;8.02;83.98;100558.56;5099365;27;97448;-28
2023/12/22 03:14:33;;;;;;;1.15;0.47;;;;;;;8.05;84.13;100558.41;5080995;27;100789;-28
2023/12/22 03:16:59;;;;;;;1.52;0.63;;;;;;;8.06;83.52;100543.97;5100194;27;96612;-28
2023/12/22 03:19:25;;;;;;;3.92;0.20;;;;;;;8.08;83.47;100560.09;5081699;27;96929;-29
2023/12/22 03:21:50;;;;;;;5.75;0.32;;;;;;;8.10;83.77;100560.84;5099601;27;99255;-29
2023/12/22 03:24:15;;;;;;;4.55;1.05;;;;;;;8.01;82.57;100545.19;5099873;27;97846;-28
2023/12/22 03:26:41;;;;;;;4.38;0.50;;;;;;;8.11;82.51;100550.94;5100276;27;96601;-29
2023/12/22 03:29:06;;;;;;;5.93;1.08;;;;;;;8.06;81.70;100554.75;5100439;27;96745;-28
2023/12/22 03:31:32;;;;;;;0.68;0.40;;;;;;;8.10;82.59;100544.66;5099154;27;105081;-28
2023/12/22 03:33:57;;;;;;;0.57;0.10;;;;;;;8.06;81.80;100549.38;5099463;27;97876;-28
2023/12/22 03:36:22;;;;;;;2.45;0.60;;;;;;;8.09;79.62;100557.28;5098647;27;96576;-28
2023/12/22 03:38:48;;;;;;;2.78;0.60;;;;;;;8.07;79.35;100544.84;5099840;27;96799;-28
2023/12/22 03:41:13;;;;;;;1.35;0.70;;;;;;;8.10;78.11;100555.44;5099703;27;97315;-29
2023/12/22 03:43:38;;;;;;;0.82;0.28;;;;;;;8.08;78.41;100547.47;5099624;27;98280;-30
2023/12/22 03:46:04;;;;;;;2.97;0.63;;;;;;;8.09;79.14;100546.50;5100092;27;96445;-29
2023/12/22 03:48:29;;;;;;;0.17;0.17;;;;;;;8.11;79.21;100549.13;5099810;27;96778;-28
2023/12/22 03:50:54;;;;;;;3.80;0.65;;;;;;;8.11;78.82;100538.31;5097959;27;98724;-29
2023/12/22 03:53:20;;;;;;;1.98;0.60;;;;;;;8.14;79.07;100546.22;5080931;27;100820;-29
2023/12/22 03:55:45;;;;;;;0.20;0.20;;;;;;;8.15;80.23;100557.88;5099824;27;96464;-30
2023/12/22 03:58:10;;;;;;;2.58;0.15;;;;;;;8.13;80.70;100558.00;5099447;27;96779;-29
2023/12/22 04:00:36;;;;;;;0.25;0.13;;;;;;;8.14;81.07;100553.47;5098559;27;97603;-28
2023/12/22 04:03:01;;;;;;;0.80;0.20;;;;;;;8.19;81.83;100559.47;5099387;27;98089;-29
2023/12/22 04:05:27;;;;;;;0.30;0.17;;;;;;;8.18;82.43;100560.44;5099355;27;96638;-28
2023/12/22 04:07:53;;;;;;;1.23;0.57;;;;;;;8.20;82.99;100558.50;5080909;27;96906;-28
2023/12/22 04:10:18;;;;;;;0.88;0.47;;;;;;;8.22;83.32;100575.47;5099128;27;97864;-28
2023/12/22 04:12:44;;;;;;;4.95;0.28;;;;;;;8.26;83.79;100566.25;5098989;27;97386;-28
2023/12/22 04:15:09;;;;;;;1.88;0.57;;;;;;;8.21;84.23;100558.41;5099269;27;96650;-28
2023/12/22 04:17:34;;;;;;;0.00;0.00;;;;;;;8.25;85.11;100565.38;5099864;27;96753;-29
2023/12/22 04:20:00;;;;;;;3.55;0.47;;;;;;;8.28;85.10;100578.69;5098669;27;99227;-29
2023/12/22 04:22:25;;;;;;;0.63;0.25;;;;;;;8.25;85.23;100564.53;5098888;27;97782;-28
2023/12/22 04:24:50;;;;;;;0.45;0.17;;;;;;;8.25;85.34;100562.69;5098833;27;97170;-29
2023/12/22 04:27:16;;;;;;;6.03;0.75;;;;;;;8.24;85.31;100568.16;5099410;27;96867;-28
2023/12/22 04:29:41;;;;;;;0.00;0.00;;;;;;;8.27;87.46;100570.69;5098760;27;97344;-29
2023/12/22 04:32:06;;;;;;;4.20;0.73;;;;;;;8.26;88.12;100574.34;5098613;27;101065;-28
2023/12/22 04:34:32;;;;;;;0.95;0.50;;;;;;;8.26;88.70;100574.34;5098846;27;96606;-28
2023/12/22 04:36:57;;;;;;;0.52;0.17;;;;;;;8.23;89.03;100574.53;5098812;27;96571;-28
2023/12/22 04:39:22;;;;;;;0.98;0.30;;;;;;;8.26;89.09;100561.72;5098536;27;100308;-28
2023/12/22 04:41:48;;;;;;;1.35;0.43;;;;;;;8.24;90.70;100585.22;5099101;27;98165;-28
2023/12/22 04:44:13;;;;;;;0.50;0.38;;;;;;;8.21;91.71;100557.56;5098642;27;96646;-28
2023/12/22 04:46:38;;;;;;;5.15;0.70;;;;;;;8.27;92.50;100560.78;5098427;27;96866;-28
2023/12/22 04:49:04;;;;;;;4.47;0.70;;;;;;;8.25;92.95;100556.44;5097878;27;102453;-28
2023/12/22 04:51:29;;;;;;;5.70;0.68;;;;;;;8.27;94.02;100555.38;5097425;27;99679;-28
2023/12/22 04:53:54;;;;;;;3.75;0.43;;;;;;;8.33;94.45;100570.34;5098961;27;96441;-29
2023/12/22 04:56:20;;;;;;;3.97;0.57;;;;;;;8.32;94.58;100562.31;5098736;27;96794;-28
2023/12/22 04:58:46;;;;;;;1.65;0.28;;;;;;;8.33;94.35;100575.75;5097951;27;99489;-29
2023/12/22 05:01:11;;;;;;;4.35;0.82;;;;;;;8.38;93.91;100576.34;5098260;27;97851;-29
2023/12/22 05:03:36;;;;;;;0.75;0.57;;;;;;;8.32;94.17;100568.63;5098767;27;96628;-29
2023/12/22 05:06:02;;;;;;;0.80;0.32;;;;;;;8.39;94.89;100582.59;5099152;27;96785;-28
2023/12/22 05:08:27;;;;;;;3.35;0.73;;;;;;;8.34;94.02;100569.38;5098096;27;99195;-29
2023/12/22 05:10:52;;;;;;;3.25;1.00;;;;;;;8.41;94.33;100587.00;5098166;27;97837;-28
2023/12/22 05:13:18;;;;;;;3.13;0.68;;;;;;;8.41;93.96;100572.63;5097973;27;96510;-28
2023/12/22 05:15:43;;;;;;;4.28;0.65;;;;;;;8.42;94.59;100580.66;5098419;27;96824;-29
2023/12/22 05:18:08;;;;;;;3.63;0.55;;;;;;;8.42;94.69;100583.34;5098100;27;97354;-29
2023/12/22 05:20:34;;;;;;;7.85;1.05;;;;;;;8.44;95.08;100580.56;5098076;27;97843;-28
2023/12/22 05:22:59;;;;;;;1.73;0.47;;;;;;;8.47;95.87;100575.84;5098360;27;96470;-29
2023/12/22 05:25:25;;;;;;;1.02;0.52;;;;;;;8.41;96.60;100561.84;5098481;27;96788;-29
2023/12/22 05:27:51;;;;;;;4.18;0.65;;;;;;;8.42;98.04;100561.75;5097672;27;99610;-29
2023/12/22 05:30:16;;;;;;;5.03;0.77;;;;;;;8.43;99.90;100570.72;5097887;27;99360;-28
2023/12/22 05:32:41;;;;;;;7.97;1.00;;;;;;;8.45;98.33;100566.97;5098438;27;96459;-28
2023/12/22 05:35:07;;;;;;;6.30;1.05;;;;;;;8.41;98.42;100560.00;5097983;27;96966;-28
2023/12/22 05:37:32;;;;;;;0.35;0.22;;;;;;;8.43;98.80;100559.94;5097559;27;97405;-28
2023/12/22 05:39:58;;;;;;;2.67;1.05;;;;;;;8.43;99.25;100560.78;5097821;27;98144;-29
2023/12/22 05:42:23;;;;;;;2.80;0.98;;;;;;;8.39;98.54;100556.53;5098214;27;96442;-29
2023/12/22 05:44:49;;;;;;;4.65;0.57;;;;;;;8.45;98.84;100575.06;5097884;27;96912;-28
2023/12/22 05:47:16;;;;;;;2.25;0.95;;;;;;;8.46;98.96;100573.25;5097516;27;99894;-28
2023/12/22 05:49:41;;;;;;;12.05;0.95;;;;;;;8.44;98.80;100554.44;5079145;27;100836;-29
2023/12/22 05:52:06;;;;;;;3.95;0.60;;;;;;;8.47;98.95;100562.38;5097591;27;96926;-28
2023/12/22 05:54:32;;;;;;;2.78;0.77;;;;;;;8.46;98.90;100551.66;5098605;27;96875;-28
2023/12/22 05:56:57;;;;;;;6.28;0.95;;;;;;;8.53;98.29;100560.25;5097473;27;99827;-28
2023/12/22 05:59:23;;;;;;;6.40;0.75;;;;;;;8.53;98.67;100560.25;5098878;27;101554;-28
2023/12/22 06:01:53;;;;;;;3.72;0.68;;;;;;;8.54;98.22;100568.28;5101059;27;96764;-28
2023/12/22 06:04:19;;;;;;;4.47;1.13;;;;;;;8.53;97.67;100552.16;5083022;27;96739;-28
2023/12/22 06:06:44;;;;;;;11.98;1.05;;;;;;;8.57;97.43;100564.53;5101086;27;97967;-28
2023/12/22 06:09:12;;;;;;;5.13;1.70;;;;;;;8.57;97.33;100561.84;5082196;27;100797;-29
2023/12/22 06:11:37;;;;;;;2.58;1.02;;;;;;;8.60;96.72;100577.84;5101200;27;96688;-28
2023/12/22 06:14:03;;;;;;;2.28;0.52;;;;;;;8.55;96.34;100561.91;5101496;27;96797;-28
2023/12/22 06:16:28;;;;;;;7.47;1.27;;;;;;;8.60;96.40;100584.09;5082344;27;99298;-28
2023/12/22 06:18:53;;;;;;;1.67;0.30;;;;;;;8.58;95.94;100572.56;5101397;27;97849;-29
2023/12/22 06:21:19;;;;;;;5.63;1.13;;;;;;;8.64;96.22;100582.97;5100763;27;97458;-29
2023/12/22 06:23:44;;;;;;;4.75;1.10;;;;;;;8.64;96.07;100592.91;5101320;27;96763;-29
2023/12/22 06:26:11;;;;;;;4.57;1.20;;;;;;;8.67;96.43;100580.09;5100234;27;98057;-30
2023/12/22 06:28:37;;;;;;;1.95;0.50;;;;;;;8.68;96.32;100592.66;5081945;27;100617;-28
2023/12/22 06:31:03;;;;;;;5.95;0.85;;;;;;;8.70;96.27;100582.63;5082447;27;96646;-28
2023/12/22 06:33:30;;;;;;;12.90;1.50;;;;;;;8.66;96.51;100575.66;5100461;27;96803;-29
2023/12/22 06:35:55;;;;;;;5.38;1.60;;;;;;;8.73;96.52;100576.19;5100527;27;98053;-30
2023/12/22 06:38:20;;;;;;;6.15;1.35;;;;;;;8.72;96.46;100563.63;5100653;27;97779;-28
2023/12/22 06:40:48;;;;;;;8.27;0.70;;;;;;;8.69;96.67;100572.78;5100479;27;96379;-28
2023/12/22 06:43:14;;;;;;;4.10;1.25;;;;;;;8.69;96.67;100575.47;5101016;27;96823;-29
2023/12/22 06:45:40;;;;;;;3.80;0.47;;;;;;;8.70;96.84;100569.13;5100358;27;98075;-28
2023/12/22 06:48:06;;;;;;;3.85;0.65;;;;;;;8.74;96.80;100572.50;5081466;27;100607;-29
2023/12/22 06:50:32;;;;;;;1.55;0.65;;;;;;;8.70;96.71;100558.34;5081197;27;96700;-28
2023/12/22 06:52:57;;;;;;;5.30;1.38;;;;;;;8.71;96.51;100565.47;5076203;27;96784;-28
2023/12/22 06:55:23;;;;;;;6.00;1.13;;;;;;;8.73;96.61;100560.00;5079359;27;99593;-29
2023/12/22 06:57:49;;;;;;;2.22;0.82;;;;;;;8.73;96.67;100546.50;5078201;27;101076;-28
2023/12/22 07:00:14;;;;;;;4.05;0.75;;;;;;;8.75;96.94;100551.78;5078678;27;96659;-30
2023/12/22 07:02:40;;;;;;;3.42;0.80;;;;;;;8.76;96.93;100559.81;5079907;27;96816;-28
2023/12/22 07:05:11;;;;;;;4.30;0.75;;;;;;;8.78;97.03;100557.88;5079705;27;97921;-29
2023/12/22 07:07:36;;;;;;;5.57;0.93;;;;;;;8.76;96.80;100550.84;5079770;27;97882;-29
2023/12/22 07:10:02;;;;;;;3.45;0.77;;;;;;;8.77;96.95;100542.66;5080212;27;96456;-29
2023/12/22 07:12:27;;;;;;;2.67;0.25;;;;;;;8.67;96.91;100528.78;5079969;27;96815;-29
2023/12/22 07:14:53;;;;;;;5.25;1.10;;;;;;;8.77;96.57;100548.06;5078992;27;97994;-28
2023/12/22 07:17:19;;;;;;;6.50;0.88;;;;;;;8.83;96.65;100544.13;5077779;27;100845;-28
2023/12/22 07:19:44;;;;;;;4.50;0.85;;;;;;;8.82;96.47;100554.06;5079775;27;96512;-28
2023/12/22 07:22:10;;;;;;;1.02;0.50;;;;;;;8.82;96.88;100545.06;5079723;27;96763;-28
2023/12/22 07:24:35;;;;;;;6.60;0.63;;;;;;;8.85;96.93;100550.28;5078896;27;99363;-28
2023/12/22 07:27:00;;;;;;;1.73;0.82;;;;;;;8.84;97.00;100546.72;5079218;27;97285;-28
2023/12/22 07:29:26;;;;;;;1.67;0.55;;;;;;;8.88;97.29;100552.81;5079540;27;96550;-28
2023/12/22 07:31:51;;;;;;;3.78;0.57;;;;;;;8.87;97.53;100542.97;5079889;27;96912;-29
2023/12/22 07:34:18;;;;;;;7.88;1.20;;;;;;;8.83;97.51;100550.38;5078956;27;97987;-30
2023/12/22 07:36:43;;;;;;;1.17;0.70;;;;;;;8.90;97.59;100551.75;5079037;27;97811;-28
2023/12/22 07:39:09;;;;;;;2.08;0.25;;;;;;;8.89;97.86;100560.84;5079027;27;96497;-28
2023/12/22 07:41:34;;;;;;;3.97;1.45;;;;;;;8.90;98.01;100553.59;5078663;27;96772;-29
2023/12/22 07:44:01;;;;;;;4.20;0.70;;;;;;;8.85;98.84;100537.66;5078873;27;97464;-29
2023/12/22 07:46:28;;;;;;;0.35;0.32;;;;;;;8.87;99.58;100532.19;5075267;27;101293;-28
2023/12/22 07:48:53;;;;;;;3.75;0.55;;;;;;;8.92;100.00;100551.66;5077696;27;96711;-32
2023/12/22 07:51:19;;;;;;;7.07;0.63;;;;;;;8.91;100.00;100553.50;5078110;27;96858;-29
2023/12/22 07:53:44;;;;;;;5.88;0.68;;;;;;;8.88;100.00;100536.59;5080445;27;101268;-28
2023/12/22 07:56:10;;;;;;;4.57;1.38;;;;;;;8.92;100.00;100538.16;5099498;27;97310;-28
2023/12/22 07:58:36;;;;;;;3.17;0.50;;;;;;;8.89;100.00;100550.03;5081133;27;96471;-29
2023/12/22 08:01:02;;;;;;;3.95;0.13;;;;;;;8.92;100.00;100539.03;5098510;27;96777;-30
2023/12/22 08:03:28;;;;;;;4.20;0.35;;;;;;;8.91;100.00;100547.22;5077333;27;101142;-30
2023/12/22 08:05:53;;;;;;;3.65;0.80;;;;;;;8.88;100.00;100539.31;5096552;27;99781;-29
2023/12/22 08:08:19;;;;;;;4.25;1.00;;;;;;;8.92;100.00;100540.88;5097131;27;96727;-29
2023/12/22 08:10:44;;;;;;;8.32;0.40;;;;;;;8.89;100.00;100547.31;5097195;27;97038;-29
2023/12/22 08:13:09;;;;;;;1.80;0.20;;;;;;;8.89;100.00;100550.03;5096737;27;97398;-30
2023/12/22 08:15:35;;;;;;;10.80;0.75;;;;;;;8.91;100.00;100548.09;5096951;27;97352;-29
2023/12/22 08:18:00;;;;;;;6.10;0.82;;;;;;;8.88;100.00;100534.75;5099521;27;96492;-30
2023/12/22 08:20:25;;;;;;;2.13;0.38;;;;;;;8.91;100.00;100521.09;5099854;27;96703;-31
2023/12/22 08:22:51;;;;;;;5.82;0.90;;;;;;;8.92;100.00;100536.31;5098635;27;97379;-29
2023/12/22 08:25:20;;;;;;;1.45;0.50;;;;;;;8.93;100.00;100537.19;5098596;27;97756;-28
2023/12/22 08:27:46;;;;;;;0.73;0.40;;;;;;;9.00;100.00;100548.50;5080031;27;96723;-28
2023/12/22 08:30:11;;;;;;;0.13;0.10;;;;;;;8.98;100.00;100536.91;5080497;27;96922;-28
2023/12/22 08:32:37;;;;;;;0.55;0.08;;;;;;;9.03;100.00;100538.38;5098444;27;99360;-28
2023/12/22 08:35:04;;;;;;;0.00;0.00;;;;;;;9.01;100.00;100529.50;5098238;27;99214;-29
2023/12/22 08:37:30;;;;;;;1.20;0.52;;;;;;;9.02;100.00;100535.78;5080497;27;96745;-29
2023/12/22 08:39:55;;;;;;;0.28;0.20;;;;;;;9.00;100.00;100533.16;5080323;27;96965;-30
2023/12/22 08:42:22;;;;;;;0.47;0.38;;;;;;;8.99;100.00;100531.44;5080116;27;98180;-28
2023/12/22 08:44:47;;;;;;;1.88;0.68;;;;;;;9.00;100.00;100532.28;5098711;27;99417;-28
2023/12/22 08:47:13;;;;;;;0.00;0.00;;;;;;;9.02;100.00;100527.69;5099061;27;96517;-28
2023/12/22 08:49:38;;;;;;;1.23;0.43;;;;;;;9.04;100.00;100532.03;5098874;27;96900;-30
2023/12/22 08:52:04;;;;;;;3.08;0.73;;;;;;;9.03;100.00;100546.47;5097166;27;97893;-28
2023/12/22 08:54:30;;;;;;;3.40;0.30;;;;;;;9.09;100.00;100526.34;5098289;27;99075;-29
2023/12/22 08:56:55;;;;;;;0.10;0.10;;;;;;;9.10;100.00;100533.47;5080123;27;96679;-28
2023/12/22 08:59:21;;;;;;;1.45;0.38;;;;;;;9.11;100.00;100537.94;5098847;27;96755;-29
2023/12/22 09:01:46;;;;;;;0.13;0.03;;;;;;;9.11;100.00;100535.22;5098396;27;97396;-29
2023/12/22 09:04:11;;;;;;;0.88;0.10;;;;;;;9.11;100.00;100525.28;5098096;27;99508;-29
2023/12/22 09:06:37;;;;;;;0.30;0.30;;;;;;;9.17;100.00;100545.66;5098645;27;96495;-29
2023/12/22 09:09:03;;;;;;;0.60;0.50;;;;;;;9.22;100.00;100546.22;5099181;27;96894;-28
2023/12/22 09:11:29;;;;;;;0.70;0.13;;;;;;;9.24;100.00;100540.75;5079492;27;101405;-30
2023/12/22 09:13:54;;;;;;;0.70;0.35;;;;;;;9.23;100.00;100531.78;5097980;27;98998;-28
2023/12/22 09:16:23;;;;;;;0.03;0.03;;;;;;;9.24;100.00;100528.09;5098279;27;96534;-28
2023/12/22 09:18:49;;;;;;;1.60;0.00;;;;;;;9.29;100.00;100534.09;5079901;27;96995;-29
2023/12/22 09:21:15;;;;;;;0.00;0.00;;;;;;;9.32;100.00;100538.47;5079185;27;101255;-28
2023/12/22 09:23:44;;;;;;;3.30;0.20;;;;;;;9.33;100.00;100522.13;5079225;27;100975;-28
2023/12/22 09:26:09;;;;;;;0.47;0.20;;;;;;;9.39;100.00;100539.81;5079865;27;96695;-28
2023/12/22 09:28:35;;;;;;;2.17;0.43;;;;;;;9.40;100.00;100535.28;5098307;27;96885;-28
2023/12/22 09:31:00;;;;;;;2.00;0.50;;;;;;;9.46;100.00;100540.28;5097780;27;105480;-29
2023/12/22 09:33:25;;;;;;;2.08;0.32;;;;;;;9.47;100.00;100548.31;5098557;27;101131;-29
2023/12/22 09:35:51;;;;;;;0.75;0.30;;;;;;;9.44;100.00;100539.50;5101577;27;96579;-28
2023/12/22 09:38:16;;;;;;;0.35;0.22;;;;;;;9.49;100.00;100540.97;5101861;27;96892;-28
2023/12/22 09:40:42;;;;;;;0.47;0.22;;;;;;;9.50;100.00;100533.72;5100944;27;103227;-28
2023/12/22 09:43:08;;;;;;;1.10;0.25;;;;;;;9.58;100.00;100553.03;5082810;27;98910;-29
2023/12/22 09:45:34;;;;;;;0.00;0.00;;;;;;;9.59;100.00;100545.81;5083336;27;96551;-28
2023/12/22 09:48:00;;;;;;;0.93;0.22;;;;;;;9.61;100.00;100552.88;5101848;27;96939;-29
2023/12/22 09:50:27;;;;;;;0.63;0.40;;;;;;;9.62;100.00;100554.59;5082071;27;101113;-28
2023/12/22 09:52:52;;;;;;;0.73;0.13;;;;;;;9.59;100.00;100551.22;5081846;27;101012;-28
2023/12/22 09:55:21;;;;;;;0.20;0.20;;;;;;;9.66;100.00;100553.44;5101398;27;96676;-29
2023/12/22 09:57:47;;;;;;;0.60;0.35;;;;;;;9.68;100.00;100554.22;5083291;27;96905;-28
2023/12/22 10:00:14;;;;;;;3.00;0.52;;;;;;;9.67;100.00;100557.88;5082460;27;99055;-28
2023/12/22 10:02:41;;;;;;;0.00;0.00;;;;;;;9.72;100.00;100555.75;5082548;27;101054;-28
2023/12/22 10:05:07;;;;;;;0.60;0.17;;;;;;;9.73;100.00;100564.75;5100478;27;96675;-28
2023/12/22 10:07:33;;;;;;;2.25;0.20;;;;;;;9.72;100.00;100561.16;5101203;27;96806;-29
2023/12/22 10:10:00;;;;;;;1.08;0.60;;;;;;;9.80;100.00;100568.81;5100941;27;98017;-28
2023/12/22 10:12:27;;;;;;;1.63;0.88;;;;;;;9.80;100.00;100555.28;5100855;27;97888;-28
2023/12/22 10:14:54;;;;;;;1.15;0.40;;;;;;;9.79;100.00;100551.69;5082605;27;96603;-28
2023/12/22 10:17:19;;;;;;;0.50;0.13;;;;;;;9.81;100.00;100557.03;5082805;27;96956;-30
2023/12/22 10:19:44;;;;;;;0.20;0.15;;;;;;;9.84;100.00;100550.53;5100622;27;97981;-28
2023/12/22 10:22:11;;;;;;;3.00;0.38;;;;;;;9.87;100.00;100555.78;5101286;27;97328;-30
2023/12/22 10:24:50;;;;;;;4.38;0.73;;;;;;;9.89;100.00;100584.47;5101161;27;97793;-28
2023/12/22 10:27:21;;;;;;;0.60;0.30;;;;;;;9.87;100.00;100553.94;5101132;27;96762;-29
2023/12/22 10:29:50;;;;;;;1.55;0.32;;;;;;;9.89;100.00;100553.81;5081607;27;101436;-30
2023/12/22 10:32:16;;;;;;;1.80;0.55;;;;;;;9.92;100.00;100562.63;5081875;27;100819;-28
2023/12/22 10:34:42;;;;;;;0.95;0.60;;;;;;;9.92;100.00;100564.47;5082359;27;96865;-28
2023/12/22 10:37:08;;;;;;;0.10;0.10;;;;;;;9.94;100.00;100549.00;5101176;27;96747;-28
2023/12/22 10:39:37;;;;;;;2.55;0.50;;;;;;;9.93;100.00;100563.50;5100247;27;100000;-29
2023/12/22 10:42:03;;;;;;;0.88;0.28;;;;;;;9.97;100.00;100584.84;5081760;27;101424;-28
2023/12/22 10:44:29;;;;;;;2.30;0.57;;;;;;;9.98;100.00;100577.59;5100380;27;96689;-28
2023/12/22 10:46:55;;;;;;;0.30;0.10;;;;;;;9.97;100.00;100578.56;5082318;27;96943;-28
2023/12/22 10:49:22;;;;;;;2.60;0.50;;;;;;;10.00;100.00;100573.81;5081750;27;101053;-30
2023/12/22 10:51:47;;;;;;;0.17;0.10;;;;;;;9.97;100.00;100576.72;5080548;27;101429;-28
2023/12/22 10:54:13;;;;;;;1.00;0.52;;;;;;;9.98;100.00;100564.06;5100129;27;96664;-28
2023/12/22 10:56:41;;;;;;;0.20;0.20;;;;;;;10.03;100.00;100567.34;5100845;27;96949;-29
2023/12/22 10:59:08;;;;;;;2.58;0.40;;;;;;;10.03;100.00;100563.78;5099846;27;100483;-28
2023/12/22 11:01:39;;;;;;;0.73;0.30;;;;;;;10.02;100.00;100568.31;5081524;27;100980;-29
2023/12/22 11:04:13;;;;;;;0.75;0.10;;;;;;;10.05;100.00;100568.13;5100669;27;96479;-29
2023/12/22 11:06:42;;;;;;;1.02;0.30;;;;;;;10.04;100.00;100571.81;5081864;27;96800;-28
2023/12/22 11:09:10;;;;;;;0.77;0.30;;;;;;;10.06;100.00;100558.16;5081330;27;100877;-28
2023/12/22 11:11:40;;;;;;;2.40;0.43;;;;;;;10.08;100.00;100558.94;5081749;27;100839;-29
2023/12/22 11:14:06;;;;;;;0.75;0.38;;;;;;;10.07;100.00;100543.66;5100364;27;96702;-28
2023/12/22 11:16:34;;;;;;;0.00;0.00;;;;;;;10.14;100.00;100570.22;5081811;27;96647;-28
2023/12/22 11:19:01;;;;;;;0.95;0.45;;;;;;;10.12;100.00;100538.81;5099230;27;99673;-28
2023/12/22 11:21:28;;;;;;;1.75;0.65;;;;;;;10.09;100.00;100530.91;5099627;27;99615;-28
2023/12/22 11:23:54;;;;;;;1.52;0.50;;;;;;;10.12;100.00;100546.94;5081568;27;96572;-28